This is the latest recevied weather packets stored in our database for station/object M0XDC. If no packets are shown the sender has not sent any weather packets the latest 10 day(s).
| Time | Temp. | Humidity | Pressure | Rain* | Wind** | Luminosity | Snow |
|---|---|---|---|---|---|---|---|
| 1778003073 | 12.78° C | 63% | 1009.4 hPa | 0 mm | - | - | - |
| 1778001274 | 12.78° C | 62% | 1009.5 hPa | 0 mm | - | - | - |
| 1777999474 | 13.33° C | 63% | 1009.5 hPa | 0 mm | - | - | - |
| 1777997674 | 13.33° C | 61% | 1009.4 hPa | 0 mm | - | - | - |
| 1777995874 | 13.89° C | 57% | 1009.6 hPa | 0 mm | - | - | - |
| 1777994074 | 14.44° C | 55% | 1009.7 hPa | 0 mm | - | - | - |
| 1777992274 | 14.44° C | 56% | 1009.8 hPa | 0 mm | - | - | - |
| 1777990474 | 15.56° C | 56% | 1009.7 hPa | 0 mm | - | - | - |
| 1777988674 | 15.56° C | 53% | 1009.8 hPa | 0 mm | - | - | - |
| 1777986874 | 16.11° C | 51% | 1010.1 hPa | 0 mm | - | - | - |
| 1777985074 | 15.56° C | 52% | 1010 hPa | 0 mm | - | - | - |
| 1777983274 | 16.67° C | 48% | 1009.9 hPa | 0 mm | - | - | - |
| 1777981474 | 15.56° C | 54% | 1010 hPa | 0 mm | - | - | - |
| 1777979674 | 14.44° C | 57% | 1010.4 hPa | 0 mm | - | - | - |
| 1777977874 | 14.44° C | 55% | 1010.7 hPa | 0 mm | - | - | - |
| 1777976074 | 15° C | 58% | 1010.6 hPa | 0 mm | - | - | - |
| 1777974274 | 14.44° C | 63% | 1011 hPa | 0 mm | - | - | - |
| 1777972474 | 13.33° C | 67% | 1010.9 hPa | 0 mm | - | - | - |
| 1777970674 | 13.33° C | 67% | 1011.2 hPa | 0 mm | - | - | - |
| 1777968874 | 12.22° C | 72% | 1010.8 hPa | 0 mm | - | - | - |
| 1777967074 | 11.11° C | 75% | 1011 hPa | 0 mm | - | - | - |
| 1777965274 | 11.67° C | 74% | 1011 hPa | 0 mm | - | - | - |
| 1777963474 | 11.11° C | 77% | 1011.1 hPa | 0 mm | - | - | - |
| 1777961674 | 10.56° C | 80% | 1011.3 hPa | 0 mm | - | - | - |
| 1777959874 | 10.56° C | 83% | 1011.1 hPa | 0 mm | - | - | - |
* Rain latest hour (hover to see other rain measurements)
** Current wind speed in m/s (hover to see current wind gust speed)